createdAt,value
2018-07-31T00:01:32.464Z,23.05
2018-07-31T00:04:00.299Z,23.01
2018-07-31T00:06:28.113Z,23.06
2018-07-31T00:08:56.565Z,23.01
2018-07-31T00:11:24.780Z,22.93
2018-07-31T00:13:52.923Z,22.83
2018-07-31T00:16:20.832Z,22.80
2018-07-31T00:18:48.747Z,22.71
2018-07-31T00:21:16.543Z,22.64
2018-07-31T00:23:44.387Z,22.56
2018-07-31T00:26:12.258Z,22.53
2018-07-31T00:28:40.096Z,22.59
2018-07-31T00:31:07.954Z,22.44
2018-07-31T00:33:35.733Z,22.50
2018-07-31T00:36:03.879Z,22.55
2018-07-31T00:38:31.703Z,22.47
2018-07-31T00:40:59.555Z,22.49
2018-07-31T00:43:27.363Z,22.40
2018-07-31T00:45:55.870Z,22.36
2018-07-31T00:48:23.728Z,22.13
2018-07-31T00:50:51.567Z,22.12
2018-07-31T00:53:19.348Z,21.98
2018-07-31T00:55:47.223Z,22.17
2018-07-31T00:58:15.007Z,22.16
2018-07-31T01:00:42.869Z,22.01
2018-07-31T01:03:10.743Z,21.91
2018-07-31T01:05:38.519Z,21.93
2018-07-31T01:08:06.478Z,21.96
2018-07-31T01:10:34.259Z,21.85
2018-07-31T01:13:02.079Z,21.76
2018-07-31T01:15:29.860Z,21.67
2018-07-31T01:17:57.719Z,21.63
2018-07-31T01:20:25.505Z,21.71
2018-07-31T01:22:53.444Z,21.72
2018-07-31T01:25:21.282Z,21.70
2018-07-31T01:27:49.110Z,21.61
2018-07-31T01:30:17.021Z,21.56
2018-07-31T01:32:44.865Z,21.56
2018-07-31T01:35:12.714Z,21.52
2018-07-31T01:37:40.507Z,21.50
2018-07-31T01:40:08.319Z,21.34
2018-07-31T01:42:36.106Z,21.43
2018-07-31T01:45:04.100Z,21.39
2018-07-31T01:47:31.926Z,21.32
2018-07-31T01:49:59.765Z,21.39
2018-07-31T01:52:27.620Z,21.50
2018-07-31T01:54:55.447Z,21.26
2018-07-31T01:57:23.238Z,21.18
2018-07-31T01:59:51.095Z,21.27
2018-07-31T02:02:18.908Z,21.28
2018-07-31T02:04:46.730Z,21.20
2018-07-31T02:07:14.523Z,21.16
2018-07-31T02:09:42.292Z,21.11
2018-07-31T02:12:10.368Z,21.07
2018-07-31T02:14:38.159Z,21.02
2018-07-31T02:17:06.108Z,20.97
2018-07-31T02:19:33.949Z,20.95
2018-07-31T02:22:01.875Z,20.89
2018-07-31T02:24:29.768Z,20.77
2018-07-31T02:26:57.635Z,20.80
2018-07-31T02:29:31.114Z,20.89
2018-07-31T02:31:58.963Z,20.98
2018-07-31T02:34:26.787Z,20.94
2018-07-31T02:36:54.660Z,20.89
2018-07-31T02:39:22.541Z,20.77
2018-07-31T02:41:50.433Z,20.86
2018-07-31T02:44:18.211Z,20.69
2018-07-31T02:46:46.103Z,20.67
2018-07-31T02:49:13.898Z,20.69
2018-07-31T02:51:41.692Z,20.63
2018-07-31T02:54:09.748Z,20.66
2018-07-31T02:56:37.561Z,20.61
2018-07-31T02:59:05.455Z,20.49
2018-07-31T03:01:33.292Z,20.44
2018-07-31T03:04:01.165Z,20.44
2018-07-31T03:06:29.464Z,20.50
2018-07-31T03:08:57.328Z,20.51
2018-07-31T03:11:25.235Z,20.37
2018-07-31T03:13:53.047Z,20.34
2018-07-31T03:16:20.893Z,20.28
2018-07-31T03:18:48.696Z,20.28
2018-07-31T03:21:16.459Z,20.27
2018-07-31T03:23:44.279Z,20.25
2018-07-31T03:26:12.120Z,20.27
2018-07-31T03:28:39.976Z,20.19
2018-07-31T03:31:07.815Z,20.24
2018-07-31T03:33:35.650Z,20.15
2018-07-31T03:36:03.452Z,20.17
2018-07-31T03:38:31.269Z,20.09
2018-07-31T03:40:59.091Z,20.03
2018-07-31T03:43:26.947Z,19.94
2018-07-31T03:45:54.747Z,19.96
2018-07-31T03:48:22.610Z,20.06
2018-07-31T03:50:50.477Z,19.94
2018-07-31T03:53:18.358Z,19.99
2018-07-31T03:55:46.211Z,19.87
2018-07-31T03:58:14.049Z,19.83
2018-07-31T04:00:41.843Z,19.80
2018-07-31T04:03:09.632Z,19.75
2018-07-31T04:05:37.436Z,19.80
2018-07-31T04:08:05.320Z,19.76
2018-07-31T04:10:33.310Z,19.73
2018-07-31T04:13:01.136Z,19.80
2018-07-31T04:15:29.004Z,19.80
2018-07-31T04:17:57.767Z,19.89
2018-07-31T04:20:26.535Z,19.84
2018-07-31T04:22:54.422Z,19.74
2018-07-31T04:25:22.620Z,19.68
2018-07-31T04:27:50.467Z,19.66
2018-07-31T04:30:18.304Z,19.65
2018-07-31T04:32:46.107Z,19.66
2018-07-31T04:35:13.957Z,19.67
2018-07-31T04:37:41.698Z,19.68
2018-07-31T04:40:09.575Z,19.72
2018-07-31T04:42:37.463Z,19.68
2018-07-31T04:45:07.468Z,19.74
2018-07-31T04:47:35.794Z,19.77
2018-07-31T04:50:03.751Z,19.88
2018-07-31T04:52:31.627Z,19.88
2018-07-31T04:54:59.508Z,19.97
2018-07-31T04:57:27.335Z,19.98
2018-07-31T04:59:55.195Z,20.00
2018-07-31T05:02:23.384Z,20.03
2018-07-31T05:04:51.263Z,20.08
2018-07-31T05:07:19.208Z,20.11
2018-07-31T05:09:47.020Z,20.22
2018-07-31T05:12:15.199Z,20.27
2018-07-31T05:14:43.070Z,20.34
2018-07-31T05:17:11.012Z,20.43
2018-07-31T05:19:38.877Z,20.56
2018-07-31T05:22:06.739Z,20.84
2018-07-31T05:24:34.734Z,21.37
2018-07-31T05:27:02.617Z,21.85
2018-07-31T05:29:30.495Z,22.41
2018-07-31T05:31:58.388Z,23.05
2018-07-31T05:34:26.269Z,23.32
2018-07-31T05:36:54.140Z,24.26
2018-07-31T05:39:21.995Z,24.40
2018-07-31T05:41:49.859Z,24.55
2018-07-31T05:44:18.092Z,24.59
2018-07-31T05:46:46.023Z,24.72
2018-07-31T05:49:13.795Z,24.87
2018-07-31T05:51:41.723Z,24.80
2018-07-31T05:54:09.775Z,25.00
2018-07-31T05:56:37.583Z,25.31
2018-07-31T05:59:05.347Z,25.69
2018-07-31T06:01:33.176Z,25.94
2018-07-31T06:04:01.016Z,26.21
2018-07-31T06:06:28.819Z,26.17
2018-07-31T06:08:56.715Z,26.29
2018-07-31T06:11:24.601Z,26.36
2018-07-31T06:13:52.727Z,26.31
2018-07-31T06:16:20.584Z,26.25
2018-07-31T06:18:48.396Z,26.09
2018-07-31T06:21:16.306Z,26.23
2018-07-31T06:23:44.144Z,26.26
2018-07-31T06:26:11.960Z,26.19
2018-07-31T06:28:39.797Z,26.31
2018-07-31T06:31:07.855Z,26.37
2018-07-31T06:33:35.734Z,26.47
2018-07-31T06:36:03.679Z,26.51
2018-07-31T06:38:31.495Z,26.52
2018-07-31T06:40:59.395Z,26.61
2018-07-31T06:43:27.292Z,26.61
2018-07-31T06:45:55.107Z,26.50
2018-07-31T06:48:22.947Z,26.54
2018-07-31T06:50:50.801Z,26.57
2018-07-31T06:53:18.627Z,26.53
2018-07-31T06:55:46.567Z,26.55
2018-07-31T06:58:14.431Z,26.60
2018-07-31T07:00:42.306Z,26.74
2018-07-31T07:03:10.091Z,26.86
2018-07-31T07:05:37.867Z,26.94
2018-07-31T07:08:05.707Z,26.99
2018-07-31T07:10:33.642Z,26.90
2018-07-31T07:13:01.461Z,27.00
2018-07-31T07:15:29.304Z,27.03
2018-07-31T07:17:57.205Z,27.05
2018-07-31T07:20:24.991Z,27.32
2018-07-31T07:22:52.807Z,27.39
2018-07-31T07:25:20.682Z,27.50
2018-07-31T07:27:48.524Z,27.60
2018-07-31T07:30:16.341Z,27.56
2018-07-31T07:32:44.159Z,27.57
2018-07-31T07:35:11.964Z,27.64
2018-07-31T07:37:39.904Z,27.72
2018-07-31T07:40:07.746Z,27.81
2018-07-31T07:42:35.545Z,27.83
2018-07-31T07:45:03.804Z,27.72
2018-07-31T07:47:31.613Z,27.76
2018-07-31T07:49:59.403Z,27.71
2018-07-31T07:52:27.200Z,27.79
2018-07-31T07:54:55.076Z,27.77
2018-07-31T07:57:22.891Z,27.74
2018-07-31T07:59:50.718Z,27.80
2018-07-31T08:02:18.576Z,27.82
2018-07-31T08:04:46.455Z,27.88
2018-07-31T08:07:14.251Z,27.91
2018-07-31T08:09:42.089Z,27.93
2018-07-31T08:12:09.972Z,28.03
2018-07-31T08:14:37.711Z,28.10
2018-07-31T08:17:05.551Z,28.19
2018-07-31T08:19:33.356Z,28.24
2018-07-31T08:22:01.234Z,28.38
2018-07-31T08:24:28.992Z,28.53
2018-07-31T08:26:56.783Z,28.81
2018-07-31T08:29:24.621Z,28.89
2018-07-31T08:31:52.416Z,29.00
2018-07-31T08:34:20.257Z,29.03
2018-07-31T08:36:48.076Z,29.08
2018-07-31T08:39:15.839Z,29.25
2018-07-31T08:41:43.601Z,29.38
2018-07-31T08:44:11.497Z,29.47
2018-07-31T08:46:39.283Z,29.67
2018-07-31T08:49:07.107Z,29.86
2018-07-31T08:51:34.926Z,29.97
2018-07-31T08:54:02.812Z,30.17
2018-07-31T08:56:30.616Z,30.42
2018-07-31T08:58:58.451Z,30.41
2018-07-31T09:01:26.368Z,30.59
2018-07-31T09:03:54.193Z,30.64
2018-07-31T09:06:22.037Z,30.73
2018-07-31T09:08:49.863Z,30.81
2018-07-31T09:11:17.652Z,30.76
2018-07-31T09:13:45.539Z,30.92
2018-07-31T09:16:13.384Z,31.02
2018-07-31T09:18:41.171Z,30.94
2018-07-31T09:21:09.120Z,31.02
2018-07-31T09:23:37.019Z,31.19
2018-07-31T09:26:04.864Z,31.16
2018-07-31T09:28:32.688Z,31.17
2018-07-31T09:31:06.454Z,31.23
2018-07-31T09:33:34.158Z,31.19
2018-07-31T09:36:02.039Z,31.31
2018-07-31T09:38:29.868Z,31.35
2018-07-31T09:40:57.678Z,31.36
2018-07-31T09:43:25.599Z,31.41
2018-07-31T09:45:53.444Z,31.48
2018-07-31T09:48:21.291Z,31.61
2018-07-31T09:50:49.112Z,31.77
2018-07-31T09:53:16.943Z,31.88
2018-07-31T09:55:44.821Z,32.11
2018-07-31T09:58:12.624Z,32.60
2018-07-31T10:00:46.059Z,33.12
2018-07-31T10:03:13.906Z,33.73
2018-07-31T10:05:41.739Z,34.07
2018-07-31T10:08:09.652Z,34.36
2018-07-31T10:10:37.510Z,34.55
2018-07-31T10:13:05.477Z,34.30
2018-07-31T10:15:33.383Z,34.28
2018-07-31T10:18:01.224Z,34.50
2018-07-31T10:20:29.087Z,34.39
2018-07-31T10:22:56.855Z,34.17
2018-07-31T10:25:24.670Z,34.39
2018-07-31T10:27:52.470Z,34.28
2018-07-31T10:30:20.267Z,34.73
2018-07-31T10:32:48.031Z,35.15
2018-07-31T10:35:15.807Z,35.71
2018-07-31T10:37:43.761Z,36.31
2018-07-31T10:40:11.538Z,36.82
2018-07-31T10:42:39.409Z,37.32
2018-07-31T10:45:07.254Z,38.22
2018-07-31T10:47:35.028Z,38.84
2018-07-31T10:50:02.888Z,39.65
2018-07-31T10:52:30.611Z,40.39
2018-07-31T10:54:58.460Z,40.77
2018-07-31T10:57:26.210Z,40.77
2018-07-31T10:59:53.998Z,41.25
2018-07-31T11:02:21.762Z,42.26
2018-07-31T11:04:49.619Z,42.78
2018-07-31T11:07:17.573Z,43.42
2018-07-31T11:09:45.343Z,43.88
2018-07-31T11:12:13.242Z,44.04
2018-07-31T11:14:41.095Z,44.28
2018-07-31T11:17:08.969Z,44.07
2018-07-31T11:19:36.839Z,44.38
2018-07-31T11:22:04.624Z,45.26
2018-07-31T11:24:32.445Z,44.58
2018-07-31T11:27:00.330Z,44.55
2018-07-31T11:29:28.147Z,44.56
2018-07-31T11:31:56.019Z,44.40
2018-07-31T11:34:23.801Z,44.46
2018-07-31T11:36:51.606Z,43.73
2018-07-31T11:39:19.535Z,43.47
2018-07-31T11:41:47.421Z,43.50
2018-07-31T11:44:15.163Z,43.24
2018-07-31T11:46:42.976Z,42.91
2018-07-31T11:49:10.903Z,42.37
2018-07-31T11:51:38.707Z,41.69
2018-07-31T11:54:06.635Z,41.54
2018-07-31T11:56:34.488Z,41.15
2018-07-31T11:59:02.305Z,41.06
2018-07-31T12:01:30.187Z,41.55
2018-07-31T12:03:58.072Z,41.17
2018-07-31T12:06:25.931Z,40.50
2018-07-31T12:08:53.757Z,40.19
2018-07-31T12:11:21.569Z,40.10
2018-07-31T12:13:49.477Z,40.06
2018-07-31T12:16:17.287Z,39.80
2018-07-31T12:18:45.127Z,40.29
2018-07-31T12:21:12.929Z,40.62
2018-07-31T12:23:40.684Z,40.82
2018-07-31T12:26:08.481Z,41.14
2018-07-31T12:28:36.322Z,41.30
2018-07-31T12:31:04.187Z,41.44
2018-07-31T12:33:32.089Z,41.48
2018-07-31T12:35:59.880Z,41.14
2018-07-31T12:38:27.677Z,41.22
2018-07-31T12:40:55.523Z,41.22
2018-07-31T12:43:23.329Z,41.09
2018-07-31T12:45:51.147Z,40.88
2018-07-31T12:48:18.960Z,41.06
2018-07-31T12:50:46.782Z,41.17
2018-07-31T12:53:14.648Z,41.30
2018-07-31T12:55:42.417Z,41.71
2018-07-31T12:58:10.243Z,41.35
2018-07-31T13:00:38.299Z,41.72
2018-07-31T13:03:06.171Z,41.90
2018-07-31T13:05:33.933Z,41.80
2018-07-31T13:08:01.787Z,41.63
2018-07-31T13:10:29.627Z,41.52
2018-07-31T13:12:57.467Z,41.43
2018-07-31T13:15:25.252Z,41.57
2018-07-31T13:17:53.048Z,41.72
2018-07-31T13:20:20.859Z,41.84
2018-07-31T13:22:48.705Z,41.89
2018-07-31T13:25:16.555Z,41.66
2018-07-31T13:27:44.581Z,41.56
2018-07-31T13:30:12.343Z,41.31
2018-07-31T13:32:40.187Z,41.70
2018-07-31T13:35:07.963Z,41.47
2018-07-31T13:37:35.743Z,41.43
2018-07-31T13:40:03.643Z,41.21
2018-07-31T13:42:31.487Z,40.93
2018-07-31T13:44:59.283Z,40.77
2018-07-31T13:47:27.104Z,40.47
2018-07-31T13:49:54.914Z,40.34
2018-07-31T13:52:22.691Z,40.44
2018-07-31T13:54:50.535Z,40.33
2018-07-31T13:57:18.395Z,40.32
2018-07-31T13:59:46.216Z,40.33
2018-07-31T14:02:14.030Z,40.18
2018-07-31T14:04:41.730Z,40.07
2018-07-31T14:07:09.636Z,40.14
2018-07-31T14:09:37.464Z,40.13
2018-07-31T14:12:05.330Z,40.10
2018-07-31T14:14:33.111Z,39.81
2018-07-31T14:17:00.903Z,39.77
2018-07-31T14:19:28.719Z,39.65
2018-07-31T14:21:56.571Z,39.65
2018-07-31T14:24:24.441Z,39.62
2018-07-31T14:26:52.251Z,39.55
2018-07-31T14:29:20.124Z,39.30
2018-07-31T14:31:47.935Z,38.90
2018-07-31T14:34:15.732Z,38.96
2018-07-31T14:36:43.563Z,38.95
2018-07-31T14:39:11.375Z,38.83
2018-07-31T14:41:39.298Z,38.91
2018-07-31T14:44:07.320Z,38.91
2018-07-31T14:46:35.223Z,38.86
2018-07-31T14:49:03.078Z,38.89
2018-07-31T14:51:30.887Z,38.90
2018-07-31T14:53:58.707Z,38.84
2018-07-31T14:56:26.863Z,38.77
2018-07-31T14:58:54.684Z,38.83
2018-07-31T15:01:22.828Z,38.76
2018-07-31T15:03:50.745Z,38.59
2018-07-31T15:06:18.513Z,38.65
2018-07-31T15:08:46.351Z,38.58
2018-07-31T15:11:14.280Z,38.54
2018-07-31T15:13:41.963Z,38.46
2018-07-31T15:16:09.775Z,38.48
2018-07-31T15:18:37.696Z,38.45
2018-07-31T15:21:05.600Z,38.35
2018-07-31T15:23:33.463Z,38.39
2018-07-31T15:26:01.328Z,38.36
2018-07-31T15:28:29.151Z,38.17
2018-07-31T15:30:57.239Z,38.18
2018-07-31T15:33:25.427Z,37.98
2018-07-31T15:35:54.040Z,37.69
2018-07-31T15:38:21.859Z,37.69
2018-07-31T15:40:49.656Z,37.56
2018-07-31T15:43:17.535Z,37.42
2018-07-31T15:45:45.443Z,37.40
2018-07-31T15:48:13.292Z,37.29
2018-07-31T15:50:41.211Z,37.25
2018-07-31T15:53:09.260Z,36.90
2018-07-31T15:55:37.067Z,36.12
2018-07-31T15:58:04.966Z,35.24
2018-07-31T16:00:32.783Z,34.06
2018-07-31T16:03:00.607Z,33.93
2018-07-31T16:05:28.475Z,32.96
2018-07-31T16:07:56.247Z,32.02
2018-07-31T16:10:27.296Z,31.59
2018-07-31T16:12:55.159Z,31.22
2018-07-31T16:15:22.972Z,30.81
2018-07-31T16:17:50.836Z,30.48
2018-07-31T16:20:18.709Z,30.61
2018-07-31T16:22:46.648Z,30.03
2018-07-31T16:25:14.565Z,29.92
2018-07-31T16:27:42.407Z,29.36
2018-07-31T16:30:10.270Z,28.84
2018-07-31T16:32:38.089Z,28.68
2018-07-31T16:35:05.985Z,28.37
2018-07-31T16:37:33.802Z,28.01
2018-07-31T16:40:01.621Z,27.94
2018-07-31T16:42:29.433Z,27.66
2018-07-31T16:44:57.714Z,27.07
2018-07-31T16:47:56.316Z,27.05
2018-07-31T16:50:24.088Z,26.73
2018-07-31T16:52:52.010Z,27.18
2018-07-31T16:55:19.840Z,27.33
2018-07-31T16:57:47.569Z,27.09
2018-07-31T17:00:15.375Z,26.98
2018-07-31T17:02:43.171Z,26.93
2018-07-31T17:05:11.071Z,27.02
2018-07-31T17:07:38.983Z,27.09
2018-07-31T17:10:06.801Z,27.23
2018-07-31T17:12:35.120Z,27.41
2018-07-31T17:15:03.513Z,27.65
2018-07-31T17:17:31.354Z,27.78
2018-07-31T17:19:59.180Z,27.94
2018-07-31T17:22:27.047Z,28.18
2018-07-31T17:24:54.962Z,28.33
2018-07-31T17:27:22.816Z,28.51
2018-07-31T17:29:50.687Z,28.68
2018-07-31T17:32:18.508Z,28.82
2018-07-31T17:34:46.368Z,28.98
2018-07-31T17:37:14.207Z,29.14
2018-07-31T17:39:42.144Z,29.24
2018-07-31T17:42:09.968Z,29.33
2018-07-31T17:44:37.838Z,29.38
2018-07-31T17:47:05.807Z,29.43
2018-07-31T17:49:33.726Z,29.48
2018-07-31T17:52:01.556Z,29.54
2018-07-31T17:54:29.555Z,29.66
2018-07-31T17:56:57.347Z,29.61
2018-07-31T17:59:25.200Z,29.59
2018-07-31T18:01:52.986Z,29.61
2018-07-31T18:04:20.872Z,29.47
2018-07-31T18:06:48.683Z,29.43
2018-07-31T18:09:16.470Z,29.38
2018-07-31T18:11:44.323Z,29.37
2018-07-31T18:14:12.173Z,29.36
2018-07-31T18:16:39.954Z,29.25
2018-07-31T18:19:08.460Z,29.19
2018-07-31T18:21:36.383Z,29.19
2018-07-31T18:24:04.996Z,29.12
2018-07-31T18:26:32.768Z,29.03
2018-07-31T18:29:00.961Z,28.95
2018-07-31T18:31:28.894Z,28.92
2018-07-31T18:33:56.681Z,28.79
2018-07-31T18:36:24.624Z,28.62
2018-07-31T18:38:52.650Z,28.55
2018-07-31T18:41:20.454Z,28.42
2018-07-31T18:43:48.319Z,28.49
2018-07-31T18:46:16.155Z,28.47
2018-07-31T18:48:44.000Z,28.24
2018-07-31T18:51:11.868Z,28.31
2018-07-31T18:53:39.716Z,28.20
2018-07-31T18:56:07.789Z,28.06
2018-07-31T18:58:35.579Z,27.99
2018-07-31T19:01:03.531Z,27.95
2018-07-31T19:03:31.403Z,27.92
2018-07-31T19:05:59.173Z,27.73
2018-07-31T19:08:27.014Z,27.63
2018-07-31T19:10:54.790Z,27.37
2018-07-31T19:13:22.738Z,27.43
2018-07-31T19:15:50.801Z,27.39
2018-07-31T19:18:19.615Z,27.53
2018-07-31T19:20:47.519Z,27.47
2018-07-31T19:23:15.291Z,27.28
2018-07-31T19:25:43.295Z,27.31
2018-07-31T19:28:11.260Z,27.23
2018-07-31T19:30:38.986Z,27.06
2018-07-31T19:33:06.908Z,26.96
2018-07-31T19:35:34.705Z,27.02
2018-07-31T19:38:02.535Z,26.90
2018-07-31T19:40:30.413Z,26.79
2018-07-31T19:42:58.063Z,26.78
2018-07-31T19:45:26.028Z,26.71
2018-07-31T19:47:54.048Z,26.64
2018-07-31T19:50:22.815Z,26.59
2018-07-31T19:52:50.907Z,26.81
2018-07-31T19:55:18.885Z,26.59
2018-07-31T19:57:46.688Z,26.52
2018-07-31T20:00:14.556Z,26.46
2018-07-31T20:02:42.555Z,26.45
2018-07-31T20:05:10.422Z,26.48
2018-07-31T20:07:38.604Z,26.40
2018-07-31T20:10:06.791Z,26.43
2018-07-31T20:12:34.735Z,26.38
2018-07-31T20:15:02.647Z,26.19
2018-07-31T20:17:30.465Z,26.23
2018-07-31T20:19:58.313Z,26.06
2018-07-31T20:22:26.207Z,25.89
2018-07-31T20:24:55.807Z,25.91
2018-07-31T20:27:23.658Z,25.86
2018-07-31T20:29:51.494Z,26.02
2018-07-31T20:32:19.279Z,25.98
2018-07-31T20:34:47.407Z,25.91
2018-07-31T20:37:15.148Z,25.88
2018-07-31T20:39:42.974Z,25.84
2018-07-31T20:42:10.878Z,25.78
2018-07-31T20:44:38.687Z,25.77
2018-07-31T20:47:07.209Z,25.71
2018-07-31T20:49:34.983Z,25.66
2018-07-31T20:52:02.855Z,25.71
2018-07-31T20:54:30.679Z,25.68
2018-07-31T20:56:58.456Z,25.70
2018-07-31T20:59:26.638Z,25.67
2018-07-31T21:01:54.495Z,25.65
2018-07-31T21:04:22.543Z,25.67
2018-07-31T21:06:50.376Z,25.63
2018-07-31T21:09:18.783Z,25.57
2018-07-31T21:11:46.787Z,25.56
2018-07-31T21:14:14.809Z,25.53
2018-07-31T21:16:42.716Z,25.60
2018-07-31T21:19:10.567Z,25.49
2018-07-31T21:21:38.344Z,25.51
2018-07-31T21:24:06.564Z,25.47
2018-07-31T21:26:34.489Z,25.49
2018-07-31T21:29:02.408Z,25.39
2018-07-31T21:31:30.334Z,25.32
2018-07-31T21:33:58.148Z,25.25
2018-07-31T21:36:25.979Z,25.25
2018-07-31T21:38:53.740Z,25.23
2018-07-31T21:41:21.567Z,25.11
2018-07-31T21:43:49.401Z,25.15
2018-07-31T21:46:17.214Z,25.08
2018-07-31T21:48:45.041Z,25.11
2018-07-31T21:51:12.796Z,25.16
2018-07-31T21:53:40.625Z,25.16
2018-07-31T21:56:08.484Z,25.17
2018-07-31T21:58:36.291Z,25.12
2018-07-31T22:01:07.093Z,25.06
2018-07-31T22:03:36.247Z,25.06
2018-07-31T22:06:04.760Z,25.04
2018-07-31T22:08:33.043Z,25.05
2018-07-31T22:11:01.116Z,25.08
2018-07-31T22:13:29.016Z,24.97
2018-07-31T22:15:56.854Z,24.98
2018-07-31T22:18:24.663Z,24.99
2018-07-31T22:20:52.487Z,25.02
2018-07-31T22:23:20.342Z,24.98
2018-07-31T22:25:48.195Z,25.03
2018-07-31T22:28:15.969Z,24.97
2018-07-31T22:30:43.811Z,25.00
2018-07-31T22:33:11.748Z,25.01
2018-07-31T22:35:39.706Z,24.99
2018-07-31T22:38:07.530Z,24.91
2018-07-31T22:40:35.364Z,24.89
2018-07-31T22:43:03.247Z,24.89
2018-07-31T22:45:31.116Z,24.85
2018-07-31T22:47:58.828Z,24.80
2018-07-31T22:50:26.684Z,24.87
2018-07-31T22:52:54.463Z,24.80
2018-07-31T22:55:22.239Z,24.73
2018-07-31T22:57:50.080Z,24.73
2018-07-31T23:00:17.965Z,24.58
2018-07-31T23:02:45.834Z,24.61
2018-07-31T23:05:13.563Z,24.56
2018-07-31T23:07:41.388Z,24.61
2018-07-31T23:10:09.193Z,24.50
2018-07-31T23:12:37.039Z,24.44
2018-07-31T23:15:06.273Z,24.52
2018-07-31T23:17:34.147Z,24.43
2018-07-31T23:20:03.093Z,24.41
2018-07-31T23:22:46.201Z,24.29
2018-07-31T23:25:13.960Z,24.33
2018-07-31T23:27:41.730Z,24.30
2018-07-31T23:30:09.799Z,24.25
2018-07-31T23:32:37.984Z,24.26
2018-07-31T23:35:06.073Z,24.23
2018-07-31T23:37:33.970Z,24.25
2018-07-31T23:40:02.723Z,24.24
2018-07-31T23:42:31.177Z,24.22
2018-07-31T23:44:59.064Z,24.18
2018-07-31T23:47:27.983Z,24.17
2018-07-31T23:49:56.291Z,24.11
2018-07-31T23:52:24.173Z,24.19
2018-07-31T23:54:52.191Z,24.07
2018-07-31T23:57:20.071Z,24.09
2018-07-31T23:59:48.095Z,24.14
